sensor_id;sensor_type;location;lat;lon;timestamp;pressure;altitude;pressure_sealevel;temperature;humidity
20079;BME280;10199;48.850;8.924;2024-02-21T01:00:51;98148.56;;;4.73;90.50
20079;BME280;10199;48.850;8.924;2024-02-21T01:09:21;98131.31;;;4.71;90.59
20079;BME280;10199;48.850;8.924;2024-02-21T01:17:13;98095.69;;;4.59;90.46
20079;BME280;10199;48.850;8.924;2024-02-21T01:38:00;98052.91;;;4.39;90.73
20079;BME280;10199;48.850;8.924;2024-02-21T01:41:18;98099.16;;;4.59;90.45
20079;BME280;10199;48.850;8.924;2024-02-21T02:02:13;98024.94;;;4.49;89.65
20079;BME280;10199;48.850;8.924;2024-02-21T02:05:32;98064.59;;;4.75;89.49
20079;BME280;10199;48.850;8.924;2024-02-21T02:08:28;98004.13;;;4.47;89.02
20079;BME280;10199;48.850;8.924;2024-02-21T02:30:04;98006.94;;;4.75;92.73
20079;BME280;10199;48.850;8.924;2024-02-21T03:51:36;97954.47;;;4.36;97.35
20079;BME280;10199;48.850;8.924;2024-02-21T05:26:53;97864.75;;;3.65;96.74
20079;BME280;10199;48.850;8.924;2024-02-21T05:38:54;97847.41;;;3.64;96.05
20079;BME280;10199;48.850;8.924;2024-02-21T05:42:14;97846.16;;;3.68;96.16
20079;BME280;10199;48.850;8.924;2024-02-21T05:45:53;97848.53;;;3.71;95.25
20079;BME280;10199;48.850;8.924;2024-02-21T05:49:56;97844.38;;;3.69;95.30
20079;BME280;10199;48.850;8.924;2024-02-21T06:02:25;97833.03;;;3.49;94.80
20079;BME280;10199;48.850;8.924;2024-02-21T06:05:17;97855.50;;;3.61;95.09
20079;BME280;10199;48.850;8.924;2024-02-21T06:08:18;97816.47;;;3.39;95.50
20079;BME280;10199;48.850;8.924;2024-02-21T06:11:07;97825.13;;;3.39;95.39
20079;BME280;10199;48.850;8.924;2024-02-21T06:13:55;97774.50;;;3.00;95.03
20079;BME280;10199;48.850;8.924;2024-02-21T06:16:43;97840.50;;;3.54;95.13
20079;BME280;10199;48.850;8.924;2024-02-21T06:19:33;97816.66;;;3.16;95.66
20079;BME280;10199;48.850;8.924;2024-02-21T06:22:24;97863.78;;;3.66;95.98
20079;BME280;10199;48.850;8.924;2024-02-21T06:25:16;97778.84;;;2.90;95.11
20079;BME280;10199;48.850;8.924;2024-02-21T06:28:05;97850.03;;;3.34;95.57
20079;BME280;10199;48.850;8.924;2024-02-21T06:30:53;97786.69;;;2.90;95.92
20079;BME280;10199;48.850;8.924;2024-02-21T06:33:42;97851.66;;;3.35;95.37
20079;BME280;10199;48.850;8.924;2024-02-21T06:36:34;97648.47;;;2.16;94.95
20079;BME280;10199;48.850;8.924;2024-02-21T06:39:22;97753.25;;;2.84;95.64
20079;BME280;10199;48.850;8.924;2024-02-21T06:42:13;97841.13;;;3.46;94.56
20079;BME280;10199;48.850;8.924;2024-02-21T06:45:01;97697.63;;;2.63;94.94
20079;BME280;10199;48.850;8.924;2024-02-21T06:47:49;97842.28;;;3.53;94.64
20079;BME280;10199;48.850;8.924;2024-02-21T06:50:37;97829.34;;;3.61;94.65
20079;BME280;10199;48.850;8.924;2024-02-21T06:53:29;97840.81;;;3.70;94.31
20079;BME280;10199;48.850;8.924;2024-02-21T06:56:17;97845.38;;;3.77;94.00
20079;BME280;10199;48.850;8.924;2024-02-21T06:59:06;97845.63;;;3.74;94.23
20079;BME280;10199;48.850;8.924;2024-02-21T07:01:54;97868.38;;;3.83;93.78
20079;BME280;10199;48.850;8.924;2024-02-21T07:04:43;97813.97;;;3.77;94.32
20079;BME280;10199;48.850;8.924;2024-02-21T07:07:31;97808.63;;;3.89;93.69
20079;BME280;10199;48.850;8.924;2024-02-21T07:10:23;97819.09;;;3.98;93.05
20079;BME280;10199;48.850;8.924;2024-02-21T07:13:11;97817.59;;;4.15;92.14
20079;BME280;10199;48.850;8.924;2024-02-21T07:16:00;97763.44;;;3.87;91.64
20079;BME280;10199;48.850;8.924;2024-02-21T07:18:48;97773.78;;;4.17;90.42
20079;BME280;10199;48.850;8.924;2024-02-21T07:21:37;97807.25;;;4.62;89.92
20079;BME280;10199;48.850;8.924;2024-02-21T07:24:28;97821.34;;;5.07;86.86
20079;BME280;10199;48.850;8.924;2024-02-21T07:27:18;97779.22;;;5.19;86.01
20079;BME280;10199;48.850;8.924;2024-02-21T07:30:07;97807.47;;;6.17;82.19
20079;BME280;10199;48.850;8.924;2024-02-21T07:32:55;97759.03;;;6.01;81.56
20079;BME280;10199;48.850;8.924;2024-02-21T07:35:44;97802.94;;;6.27;81.54
20079;BME280;10199;48.850;8.924;2024-02-21T07:38:32;97792.72;;;6.06;81.58
20079;BME280;10199;48.850;8.924;2024-02-21T07:41:21;97802.84;;;6.01;81.80
20079;BME280;10199;48.850;8.924;2024-02-21T07:44:10;97794.69;;;6.22;80.59
20079;BME280;10199;48.850;8.924;2024-02-21T07:47:01;97785.25;;;6.29;80.34
20079;BME280;10199;48.850;8.924;2024-02-21T07:49:49;97783.56;;;6.46;79.65
20079;BME280;10199;48.850;8.924;2024-02-21T07:52:44;97776.16;;;6.23;80.37
20079;BME280;10199;48.850;8.924;2024-02-21T07:55:32;97765.72;;;6.31;80.06
20079;BME280;10199;48.850;8.924;2024-02-21T07:58:24;97773.44;;;5.97;80.84
20079;BME280;10199;48.850;8.924;2024-02-21T08:01:27;97745.28;;;5.72;80.33
20079;BME280;10199;48.850;8.924;2024-02-21T08:04:15;97776.41;;;6.56;79.18
20079;BME280;10199;48.850;8.924;2024-02-21T08:07:21;97789.53;;;6.12;79.22
20079;BME280;10199;48.850;8.924;2024-02-21T08:10:09;97794.28;;;6.52;79.51
20079;BME280;10199;48.850;8.924;2024-02-21T08:12:57;97753.84;;;6.45;79.48
20079;BME280;10199;48.850;8.924;2024-02-21T08:15:46;97755.56;;;6.80;78.77
20079;BME280;10199;48.850;8.924;2024-02-21T08:18:35;97771.00;;;6.83;78.30
20079;BME280;10199;48.850;8.924;2024-02-21T08:21:32;97774.94;;;6.79;77.86
20079;BME280;10199;48.850;8.924;2024-02-21T08:24:29;97764.00;;;7.18;76.94
20079;BME280;10199;48.850;8.924;2024-02-21T08:27:17;97648.13;;;6.25;76.58
20079;BME280;10199;48.850;8.924;2024-02-21T08:30:06;97601.13;;;5.96;75.77
20079;BME280;10199;48.850;8.924;2024-02-21T08:32:55;97749.94;;;7.01;76.46
20079;BME280;10199;48.850;8.924;2024-02-21T08:35:44;97736.84;;;7.09;77.99
20079;BME280;10199;48.850;8.924;2024-02-21T08:38:33;97742.31;;;7.24;76.58
20079;BME280;10199;48.850;8.924;2024-02-21T08:41:22;97734.16;;;7.01;76.13
20079;BME280;10199;48.850;8.924;2024-02-21T08:44:22;97741.59;;;7.06;76.09
20079;BME280;10199;48.850;8.924;2024-02-21T08:47:10;97739.06;;;7.30;77.41
20079;BME280;10199;48.850;8.924;2024-02-21T08:49:59;97707.25;;;6.81;76.77
20079;BME280;10199;48.850;8.924;2024-02-21T08:52:53;97683.88;;;6.70;77.58
20079;BME280;10199;48.850;8.924;2024-02-21T08:55:41;97576.53;;;5.97;76.90
20079;BME280;10199;48.850;8.924;2024-02-21T08:58:34;97721.56;;;7.13;77.27
20079;BME280;10199;48.850;8.924;2024-02-21T09:01:23;97716.09;;;7.06;76.94
20079;BME280;10199;48.850;8.924;2024-02-21T09:04:14;97686.47;;;6.96;76.36
20079;BME280;10199;48.850;8.924;2024-02-21T09:07:02;97722.78;;;7.34;76.94
20079;BME280;10199;48.850;8.924;2024-02-21T09:09:52;97648.03;;;7.03;75.17
20079;BME280;10199;48.850;8.924;2024-02-21T09:12:40;97697.75;;;7.22;76.07
20079;BME280;10199;48.850;8.924;2024-02-21T09:15:28;97692.34;;;7.24;74.92
20079;BME280;10199;48.850;8.924;2024-02-21T09:18:18;97714.25;;;7.32;74.48
20079;BME280;10199;48.850;8.924;2024-02-21T09:21:06;97714.41;;;8.06;74.79
20079;BME280;10199;48.850;8.924;2024-02-21T09:23:59;97745.97;;;7.81;74.29
20079;BME280;10199;48.850;8.924;2024-02-21T09:26:49;97704.84;;;7.96;73.21
20079;BME280;10199;48.850;8.924;2024-02-21T09:29:37;97702.06;;;8.06;73.54
20079;BME280;10199;48.850;8.924;2024-02-21T09:32:26;97695.31;;;8.44;72.40
20079;BME280;10199;48.850;8.924;2024-02-21T09:35:14;97694.56;;;8.91;71.69
20079;BME280;10199;48.850;8.924;2024-02-21T09:38:03;97680.28;;;8.69;70.72
20079;BME280;10199;48.850;8.924;2024-02-21T09:40:59;97659.19;;;8.69;70.82
20079;BME280;10199;48.850;8.924;2024-02-21T09:43:50;97686.28;;;9.02;71.07
20079;BME280;10199;48.850;8.924;2024-02-21T09:46:50;97651.19;;;8.93;69.35
20079;BME280;10199;48.850;8.924;2024-02-21T09:53:12;97650.41;;;9.55;67.10
20079;BME280;10199;48.850;8.924;2024-02-21T09:56:10;97648.78;;;9.77;67.06
20079;BME280;10199;48.850;8.924;2024-02-21T09:59:06;97662.84;;;9.69;65.76
20079;BME280;10199;48.850;8.924;2024-02-21T10:01:55;97660.63;;;9.81;66.29
20079;BME280;10199;48.850;8.924;2024-02-21T10:04:43;97659.69;;;9.74;66.68
20079;BME280;10199;48.850;8.924;2024-02-21T10:07:31;97644.81;;;9.96;67.41
20079;BME280;10199;48.850;8.924;2024-02-21T10:10:42;97642.06;;;9.66;66.95
20079;BME280;10199;48.850;8.924;2024-02-21T10:14:08;97645.63;;;9.50;65.78
20079;BME280;10199;48.850;8.924;2024-02-21T10:17:30;97611.66;;;9.47;65.11
20079;BME280;10199;48.850;8.924;2024-02-21T10:20:18;97629.22;;;9.86;64.45
20079;BME280;10199;48.850;8.924;2024-02-21T10:23:06;97629.72;;;10.04;65.97
20079;BME280;10199;48.850;8.924;2024-02-21T10:26:22;97626.00;;;10.13;64.35
20079;BME280;10199;48.850;8.924;2024-02-21T10:29:11;97623.31;;;10.21;65.21
20079;BME280;10199;48.850;8.924;2024-02-21T10:32:07;97533.00;;;9.80;64.93
20079;BME280;10199;48.850;8.924;2024-02-21T10:35:04;97573.81;;;10.30;63.75
20079;BME280;10199;48.850;8.924;2024-02-21T10:38:19;97611.34;;;10.63;64.14
20079;BME280;10199;48.850;8.924;2024-02-21T10:41:10;97568.66;;;9.99;63.67
20079;BME280;10199;48.850;8.924;2024-02-21T10:44:05;97568.81;;;10.20;62.74
20079;BME280;10199;48.850;8.924;2024-02-21T10:46:58;97561.38;;;10.01;65.27
20079;BME280;10199;48.850;8.924;2024-02-21T10:49:56;97600.38;;;9.99;62.75
20079;BME280;10199;48.850;8.924;2024-02-21T10:52:48;97499.22;;;9.53;64.66
20079;BME280;10199;48.850;8.924;2024-02-21T10:55:48;97520.00;;;9.33;63.36
20079;BME280;10199;48.850;8.924;2024-02-21T10:58:39;97581.97;;;9.68;63.64
20079;BME280;10199;48.850;8.924;2024-02-21T11:01:29;97578.25;;;9.77;62.85
20079;BME280;10199;48.850;8.924;2024-02-21T11:04:20;97577.84;;;10.26;63.96
20079;BME280;10199;48.850;8.924;2024-02-21T11:07:10;97575.06;;;10.19;63.26
20079;BME280;10199;48.850;8.924;2024-02-21T11:10:02;97561.16;;;10.26;63.83
20079;BME280;10199;48.850;8.924;2024-02-21T11:13:05;97559.50;;;10.25;62.97
20079;BME280;10199;48.850;8.924;2024-02-21T11:15:54;97553.25;;;10.40;62.32
20079;BME280;10199;48.850;8.924;2024-02-21T11:18:43;97491.19;;;10.13;61.67
20079;BME280;10199;48.850;8.924;2024-02-21T11:26:06;97259.69;;;9.17;60.55
20079;BME280;10199;48.850;8.924;2024-02-21T11:32:43;97486.97;;;10.78;62.51
20079;BME280;10199;48.850;8.924;2024-02-21T11:35:33;97316.84;;;9.40;61.56
20079;BME280;10199;48.850;8.924;2024-02-21T11:38:23;97504.88;;;10.97;61.85
20079;BME280;10199;48.850;8.924;2024-02-21T11:41:19;97341.78;;;9.37;62.10
20079;BME280;10199;48.850;8.924;2024-02-21T11:44:09;97497.81;;;10.83;61.65
20079;BME280;10199;48.850;8.924;2024-02-21T11:46:57;97490.13;;;10.52;60.17
20079;BME280;10199;48.850;8.924;2024-02-21T11:49:47;97484.59;;;10.47;60.36
20079;BME280;10199;48.850;8.924;2024-02-21T11:52:40;97477.28;;;11.06;60.38
20079;BME280;10199;48.850;8.924;2024-02-21T11:55:29;97473.63;;;11.07;59.90
20079;BME280;10199;48.850;8.924;2024-02-21T11:58:24;97441.06;;;11.07;60.40
20079;BME280;10199;48.850;8.924;2024-02-21T12:01:23;97464.25;;;11.26;59.83
20079;BME280;10199;48.850;8.924;2024-02-21T12:04:11;97106.78;;;8.94;60.94
20079;BME280;10199;48.850;8.924;2024-02-21T12:07:00;97427.56;;;11.02;59.95
20079;BME280;10199;48.850;8.924;2024-02-21T12:09:50;97435.34;;;11.53;60.19
20079;BME280;10199;48.850;8.924;2024-02-21T12:12:39;97432.94;;;11.58;59.47
20079;BME280;10199;48.850;8.924;2024-02-21T12:15:29;97426.72;;;11.23;59.97
20079;BME280;10199;48.850;8.924;2024-02-21T12:21:44;97423.59;;;11.12;57.87
20079;BME280;10199;48.850;8.924;2024-02-21T12:24:55;97407.38;;;11.43;59.11
20079;BME280;10199;48.850;8.924;2024-02-21T12:27:44;97402.34;;;11.55;58.31
20079;BME280;10199;48.850;8.924;2024-02-21T12:34:38;97391.81;;;11.34;57.28
20079;BME280;10199;48.850;8.924;2024-02-21T12:37:29;97296.69;;;11.32;57.93
20079;BME280;10199;48.850;8.924;2024-02-21T12:40:18;97358.41;;;11.67;56.58
20079;BME280;10199;48.850;8.924;2024-02-21T12:43:06;97374.41;;;11.80;56.37
20079;BME280;10199;48.850;8.924;2024-02-21T12:45:55;97367.50;;;11.86;55.34
20079;BME280;10199;48.850;8.924;2024-02-21T12:48:43;97326.59;;;11.61;56.72
20079;BME280;10199;48.850;8.924;2024-02-21T12:51:36;97348.88;;;11.73;55.82
20079;BME280;10199;48.850;8.924;2024-02-21T12:54:26;97337.25;;;11.74;53.83
20079;BME280;10199;48.850;8.924;2024-02-21T12:57:30;97335.81;;;11.71;57.18
20079;BME280;10199;48.850;8.924;2024-02-21T13:00:18;97340.19;;;11.86;55.63
20079;BME280;10199;48.850;8.924;2024-02-21T13:03:08;97327.56;;;11.53;55.03
20079;BME280;10199;48.850;8.924;2024-02-21T13:05:56;97265.84;;;11.59;54.09
20079;BME280;10199;48.850;8.924;2024-02-21T13:08:47;97317.00;;;11.60;52.55
20079;BME280;10199;48.850;8.924;2024-02-21T13:11:42;97324.72;;;11.89;54.29
20079;BME280;10199;48.850;8.924;2024-02-21T13:14:40;97292.13;;;12.02;53.70
20079;BME280;10199;48.850;8.924;2024-02-21T13:17:30;97296.22;;;11.63;51.70
20079;BME280;10199;48.850;8.924;2024-02-21T13:20:19;97303.13;;;11.99;54.00
20079;BME280;10199;48.850;8.924;2024-02-21T13:23:10;97128.66;;;10.94;51.15
20079;BME280;10199;48.850;8.924;2024-02-21T13:26:10;97113.09;;;11.18;50.45
20079;BME280;10199;48.850;8.924;2024-02-21T13:28:59;97169.03;;;11.50;48.93
20079;BME280;10199;48.850;8.924;2024-02-21T13:31:49;97258.44;;;11.89;46.39
20079;BME280;10199;48.850;8.924;2024-02-21T13:34:38;97229.38;;;11.61;54.29
20079;BME280;10199;48.850;8.924;2024-02-21T13:38:54;97213.53;;;11.27;49.89
20079;BME280;10199;48.850;8.924;2024-02-21T13:41:43;97244.88;;;11.23;59.76
20079;BME280;10199;48.850;8.924;2024-02-21T13:48:30;97229.47;;;11.33;61.77
20079;BME280;10199;48.850;8.924;2024-02-21T13:51:48;97228.28;;;11.08;62.02
20079;BME280;10199;48.850;8.924;2024-02-21T13:55:22;97227.25;;;11.02;62.12
20079;BME280;10199;48.850;8.924;2024-02-21T14:02:43;97228.41;;;10.93;63.26
20079;BME280;10199;48.850;8.924;2024-02-21T14:05:31;97194.56;;;10.33;63.56
20079;BME280;10199;48.850;8.924;2024-02-21T14:21:45;97135.13;;;10.22;65.44
20079;BME280;10199;48.850;8.924;2024-02-21T14:24:34;97193.88;;;10.73;66.25
20079;BME280;10199;48.850;8.924;2024-02-21T14:27:22;97192.78;;;10.61;66.66
20079;BME280;10199;48.850;8.924;2024-02-21T14:30:10;97177.94;;;10.39;66.49
20079;BME280;10199;48.850;8.924;2024-02-21T14:33:15;96955.38;;;9.10;67.58
20079;BME280;10199;48.850;8.924;2024-02-21T14:36:17;97178.31;;;10.14;67.56
20079;BME280;10199;48.850;8.924;2024-02-21T14:43:21;97173.16;;;10.49;67.27
20079;BME280;10199;48.850;8.924;2024-02-21T14:53:16;97013.72;;;9.43;67.44
20079;BME280;10199;48.850;8.924;2024-02-21T14:56:14;97152.91;;;10.63;67.09
20079;BME280;10199;48.850;8.924;2024-02-21T15:00:17;97145.59;;;10.15;68.71
20079;BME280;10199;48.850;8.924;2024-02-21T15:04:42;97143.59;;;10.17;68.42
20079;BME280;10199;48.850;8.924;2024-02-21T15:07:13;97127.34;;;10.42;68.30
20079;BME280;10199;48.850;8.924;2024-02-21T15:15:40;97015.16;;;9.67;67.12
20079;BME280;10199;48.850;8.924;2024-02-21T15:23:11;96851.56;;;8.54;68.75
20079;BME280;10199;48.850;8.924;2024-02-21T15:26:02;97061.53;;;9.98;69.41
20079;BME280;10199;48.850;8.924;2024-02-21T15:28:54;97030.16;;;9.88;68.55
20079;BME280;10199;48.850;8.924;2024-02-21T15:31:43;97053.16;;;9.94;69.13
20079;BME280;10199;48.850;8.924;2024-02-21T15:34:33;97049.72;;;10.21;69.38
20079;BME280;10199;48.850;8.924;2024-02-21T15:37:22;97032.88;;;10.01;69.35
20079;BME280;10199;48.850;8.924;2024-02-21T15:40:12;97056.09;;;10.06;69.79
20079;BME280;10199;48.850;8.924;2024-02-21T15:43:15;97046.53;;;10.33;67.95
20079;BME280;10199;48.850;8.924;2024-02-21T15:46:04;97048.09;;;10.20;66.75
20079;BME280;10199;48.850;8.924;2024-02-21T15:48:54;97050.63;;;10.35;66.06
20079;BME280;10199;48.850;8.924;2024-02-21T15:51:42;97054.06;;;10.08;66.47
20079;BME280;10199;48.850;8.924;2024-02-21T15:54:30;97050.19;;;10.32;66.27
20079;BME280;10199;48.850;8.924;2024-02-21T15:57:21;97047.75;;;10.30;61.98
20079;BME280;10199;48.850;8.924;2024-02-21T16:00:11;97039.88;;;10.15;59.86
20079;BME280;10199;48.850;8.924;2024-02-21T16:03:05;97031.00;;;10.51;55.67
20079;BME280;10199;48.850;8.924;2024-02-21T16:06:12;97012.22;;;10.11;56.48
20079;BME280;10199;48.850;8.924;2024-02-21T16:09:00;96986.28;;;10.21;49.40
20079;BME280;10199;48.850;8.924;2024-02-21T16:11:51;97010.00;;;10.43;51.35
20079;BME280;10199;48.850;8.924;2024-02-21T16:14:40;97006.78;;;10.47;52.02
20079;BME280;10199;48.850;8.924;2024-02-21T16:17:46;96994.03;;;10.23;50.12
20079;BME280;10199;48.850;8.924;2024-02-21T16:20:36;96949.41;;;10.13;47.77
20079;BME280;10199;48.850;8.924;2024-02-21T16:23:58;96960.69;;;10.29;45.48
20079;BME280;10199;48.850;8.924;2024-02-21T16:26:46;96894.69;;;10.01;43.38
20079;BME280;10199;48.850;8.924;2024-02-21T16:29:38;96916.69;;;10.14;44.69
20079;BME280;10199;48.850;8.924;2024-02-21T16:32:27;96855.63;;;9.89;42.65
20079;BME280;10199;48.850;8.924;2024-02-21T16:35:15;96932.78;;;10.19;45.23
20079;BME280;10199;48.850;8.924;2024-02-21T16:38:11;96673.94;;;8.76;43.76
20079;BME280;10199;48.850;8.924;2024-02-21T16:41:25;96930.28;;;10.11;46.11
20079;BME280;10199;48.850;8.924;2024-02-21T16:44:14;96921.50;;;9.98;47.56
20079;BME280;10199;48.850;8.924;2024-02-21T16:47:04;96910.72;;;9.99;46.62
20079;BME280;10199;48.850;8.924;2024-02-21T16:49:56;96936.13;;;10.00;49.17
20079;BME280;10199;48.850;8.924;2024-02-21T16:52:52;96939.59;;;10.01;50.83
20079;BME280;10199;48.850;8.924;2024-02-21T16:55:54;96911.50;;;10.28;51.46
20079;BME280;10199;48.850;8.924;2024-02-21T16:58:44;96929.56;;;9.89;52.58
20079;BME280;10199;48.850;8.924;2024-02-21T17:01:36;96912.69;;;9.84;53.29
20079;BME280;10199;48.850;8.924;2024-02-21T17:04:26;96926.34;;;9.94;54.38
20079;BME280;10199;48.850;8.924;2024-02-21T17:07:14;96905.16;;;9.81;55.49
20079;BME280;10199;48.850;8.924;2024-02-21T17:10:04;96910.41;;;9.74;56.10
20079;BME280;10199;48.850;8.924;2024-02-21T17:12:53;96925.47;;;9.80;57.06
20079;BME280;10199;48.850;8.924;2024-02-21T17:15:43;96912.00;;;9.69;58.71
20079;BME280;10199;48.850;8.924;2024-02-21T17:18:31;96906.78;;;9.82;59.15
20079;BME280;10199;48.850;8.924;2024-02-21T17:21:20;96921.19;;;9.79;60.21
20079;BME280;10199;48.850;8.924;2024-02-21T17:24:08;96820.53;;;9.26;61.25
20079;BME280;10199;48.850;8.924;2024-02-21T17:26:57;96917.53;;;9.80;61.47
20079;BME280;10199;48.850;8.924;2024-02-21T17:29:45;96906.31;;;9.72;63.45
20079;BME280;10199;48.850;8.924;2024-02-21T17:32:35;96878.44;;;9.63;63.55
20079;BME280;10199;48.850;8.924;2024-02-21T17:35:23;96900.19;;;10.47;62.58
20079;BME280;10199;48.850;8.924;2024-02-21T17:38:11;96879.53;;;9.75;64.84
20079;BME280;10199;48.850;8.924;2024-02-21T17:40:59;96902.28;;;9.76;64.97
20079;BME280;10199;48.850;8.924;2024-02-21T17:43:54;96905.88;;;9.68;65.43
20079;BME280;10199;48.850;8.924;2024-02-21T17:46:42;96897.81;;;9.48;66.83
20079;BME280;10199;48.850;8.924;2024-02-21T17:49:32;96885.38;;;9.42;67.66
20079;BME280;10199;48.850;8.924;2024-02-21T17:52:21;96897.44;;;9.51;67.78
20079;BME280;10199;48.850;8.924;2024-02-21T17:55:09;96867.88;;;9.35;68.14
20079;BME280;10199;48.850;8.924;2024-02-21T17:57:59;96862.91;;;9.18;67.97
20079;BME280;10199;48.850;8.924;2024-02-21T18:00:47;96864.53;;;9.19;67.87
20079;BME280;10199;48.850;8.924;2024-02-21T18:03:35;96895.50;;;9.39;67.98
20079;BME280;10199;48.850;8.924;2024-02-21T18:06:25;96881.75;;;9.43;67.78
20079;BME280;10199;48.850;8.924;2024-02-21T18:09:13;96885.72;;;9.33;67.82
20079;BME280;10199;48.850;8.924;2024-02-21T18:12:04;96857.72;;;9.32;67.66
20079;BME280;10199;48.850;8.924;2024-02-21T18:14:53;96873.81;;;9.43;67.54
20079;BME280;10199;48.850;8.924;2024-02-21T18:17:42;96848.44;;;9.42;67.90
20079;BME280;10199;48.850;8.924;2024-02-21T18:20:30;96850.38;;;9.27;68.38
20079;BME280;10199;48.850;8.924;2024-02-21T18:23:19;96855.66;;;9.27;68.25
20079;BME280;10199;48.850;8.924;2024-02-21T18:26:07;96791.69;;;8.90;67.97
20079;BME280;10199;48.850;8.924;2024-02-21T18:28:56;96823.94;;;9.20;67.54
20079;BME280;10199;48.850;8.924;2024-02-21T18:31:44;96764.22;;;8.78;68.19
20079;BME280;10199;48.850;8.924;2024-02-21T18:34:32;96806.59;;;9.05;67.58
20079;BME280;10199;48.850;8.924;2024-02-21T18:37:21;96838.56;;;9.23;67.09
20079;BME280;10199;48.850;8.924;2024-02-21T18:40:12;96842.59;;;9.19;67.09
20079;BME280;10199;48.850;8.924;2024-02-21T18:43:02;96823.41;;;9.04;66.79
20079;BME280;10199;48.850;8.924;2024-02-21T18:45:51;96842.56;;;9.12;67.71
20079;BME280;10199;48.850;8.924;2024-02-21T18:48:39;96820.19;;;9.08;66.86
20079;BME280;10199;48.850;8.924;2024-02-21T18:51:32;96736.22;;;8.56;67.39
20079;BME280;10199;48.850;8.924;2024-02-21T18:54:21;96777.00;;;8.81;66.82
20079;BME280;10199;48.850;8.924;2024-02-21T18:57:11;96788.94;;;9.05;66.30
20079;BME280;10199;48.850;8.924;2024-02-21T19:00:02;96783.31;;;9.15;64.38
20079;BME280;10199;48.850;8.924;2024-02-21T19:02:54;96755.53;;;9.19;62.08
20079;BME280;10199;48.850;8.924;2024-02-21T19:05:42;96786.88;;;9.35;61.25
20079;BME280;10199;48.850;8.924;2024-02-21T19:08:30;96756.28;;;8.78;61.12
20079;BME280;10199;48.850;8.924;2024-02-21T19:11:19;96800.78;;;9.16;60.51
20079;BME280;10199;48.850;8.924;2024-02-21T19:14:09;96737.91;;;8.91;58.41
20079;BME280;10199;48.850;8.924;2024-02-21T19:16:58;96777.22;;;9.14;56.74
20079;BME280;10199;48.850;8.924;2024-02-21T19:19:47;96785.66;;;9.38;55.07
20079;BME280;10199;48.850;8.924;2024-02-21T19:22:36;96755.47;;;9.06;55.23
20079;BME280;10199;48.850;8.924;2024-02-21T19:25:26;96793.59;;;9.38;54.58
20079;BME280;10199;48.850;8.924;2024-02-21T19:28:14;96742.06;;;9.07;54.34
20079;BME280;10199;48.850;8.924;2024-02-21T19:31:06;96730.13;;;9.11;53.53
20079;BME280;10199;48.850;8.924;2024-02-21T19:33:54;96775.56;;;9.48;52.80
20079;BME280;10199;48.850;8.924;2024-02-21T19:36:43;96760.72;;;9.40;53.67
20079;BME280;10199;48.850;8.924;2024-02-21T19:39:31;96778.19;;;9.41;54.13
20079;BME280;10199;48.850;8.924;2024-02-21T19:42:19;96626.72;;;8.53;53.12
20079;BME280;10199;48.850;8.924;2024-02-21T19:45:09;96773.94;;;9.47;53.26
20079;BME280;10199;48.850;8.924;2024-02-21T19:47:58;96768.00;;;9.38;53.81
20079;BME280;10199;48.850;8.924;2024-02-21T19:50:46;96730.13;;;9.11;55.02
20079;BME280;10199;48.850;8.924;2024-02-21T19:53:35;96576.03;;;8.23;53.79
20079;BME280;10199;48.850;8.924;2024-02-21T19:56:23;96751.97;;;9.40;54.00
20079;BME280;10199;48.850;8.924;2024-02-21T19:59:11;96778.19;;;9.41;53.38
20079;BME280;10199;48.850;8.924;2024-02-21T20:01:59;96762.97;;;9.43;53.03
20079;BME280;10199;48.850;8.924;2024-02-21T20:05:11;96758.06;;;9.40;53.54
20079;BME280;10199;48.850;8.924;2024-02-21T20:08:28;96756.34;;;9.54;53.01
20079;BME280;10199;48.850;8.924;2024-02-21T20:11:18;96756.28;;;9.47;54.25
20079;BME280;10199;48.850;8.924;2024-02-21T20:14:10;96751.06;;;9.54;52.91
20079;BME280;10199;48.850;8.924;2024-02-21T20:16:58;96751.66;;;9.56;52.38
20079;BME280;10199;48.850;8.924;2024-02-21T20:19:53;96754.81;;;9.86;51.41
20079;BME280;10199;48.850;8.924;2024-02-21T20:22:44;96755.22;;;9.83;51.39
20079;BME280;10199;48.850;8.924;2024-02-21T20:25:47;96724.41;;;9.49;52.88
20079;BME280;10199;48.850;8.924;2024-02-21T20:28:40;96695.84;;;9.66;51.03
20079;BME280;10199;48.850;8.924;2024-02-21T20:31:36;96682.66;;;9.66;51.22
20079;BME280;10199;48.850;8.924;2024-02-21T20:34:25;96751.63;;;10.10;51.67
20079;BME280;10199;48.850;8.924;2024-02-21T20:37:20;96741.84;;;10.04;51.73
20079;BME280;10199;48.850;8.924;2024-02-21T20:40:45;96744.34;;;10.26;51.61
20079;BME280;10199;48.850;8.924;2024-02-21T20:43:57;96727.88;;;10.30;52.44
20079;BME280;10199;48.850;8.924;2024-02-21T20:46:45;96685.34;;;9.92;52.59
20079;BME280;10199;48.850;8.924;2024-02-21T20:50:01;96726.88;;;10.31;52.94
20079;BME280;10199;48.850;8.924;2024-02-21T20:53:16;96725.25;;;10.37;54.42
20079;BME280;10199;48.850;8.924;2024-02-21T20:56:43;96731.75;;;10.28;54.86
20079;BME280;10199;48.850;8.924;2024-02-21T20:59:37;96723.00;;;10.34;55.61
20079;BME280;10199;48.850;8.924;2024-02-21T21:02:59;96712.22;;;10.29;57.41
20079;BME280;10199;48.850;8.924;2024-02-21T21:07:11;96711.19;;;10.16;58.85
20079;BME280;10199;48.850;8.924;2024-02-21T21:10:07;96638.97;;;9.56;60.32
20079;BME280;10199;48.850;8.924;2024-02-21T21:13:41;96505.41;;;8.81;61.12
20079;BME280;10199;48.850;8.924;2024-02-21T21:16:33;96677.22;;;10.00;60.63
20079;BME280;10199;48.850;8.924;2024-02-21T21:19:24;96668.69;;;10.11;58.74
20079;BME280;10199;48.850;8.924;2024-02-21T21:22:42;96673.81;;;10.26;57.77
20079;BME280;10199;48.850;8.924;2024-02-21T21:25:37;96651.25;;;10.24;58.45
20079;BME280;10199;48.850;8.924;2024-02-21T21:28:53;96635.97;;;10.12;58.91
20079;BME280;10199;48.850;8.924;2024-02-21T21:40:43;96577.03;;;10.05;57.35
20079;BME280;10199;48.850;8.924;2024-02-21T21:43:33;96583.72;;;10.34;55.95
20079;BME280;10199;48.850;8.924;2024-02-21T21:46:25;96575.59;;;10.36;55.85
20079;BME280;10199;48.850;8.924;2024-02-21T21:49:16;96535.38;;;9.94;56.41
20079;BME280;10199;48.850;8.924;2024-02-21T21:52:04;96567.06;;;10.27;56.40
20079;BME280;10199;48.850;8.924;2024-02-21T21:54:54;96562.56;;;10.34;55.35
20079;BME280;10199;48.850;8.924;2024-02-21T21:57:45;96520.34;;;10.01;56.47